sensor_id;sensor_type;location;lat;lon;timestamp;pressure;altitude;pressure_sealevel;temperature;humidity
33454;BME280;39400;49.744;7.012;2022-12-16T00:01:10;94900.31;;;-7.79;100.00
33454;BME280;39400;49.744;7.012;2022-12-16T00:03:37;94893.75;;;-7.73;100.00
33454;BME280;39400;49.744;7.012;2022-12-16T00:06:03;94889.88;;;-7.67;100.00
33454;BME280;39400;49.744;7.012;2022-12-16T00:08:34;94891.88;;;-7.50;100.00
33454;BME280;39400;49.744;7.012;2022-12-16T00:11:01;94892.72;;;-7.40;100.00
33454;BME280;39400;49.744;7.012;2022-12-16T00:13:28;94894.97;;;-7.34;100.00
33454;BME280;39400;49.744;7.012;2022-12-16T00:15:53;94902.31;;;-7.31;100.00
33454;BME280;39400;49.744;7.012;2022-12-16T00:18:19;94897.97;;;-7.27;100.00
33454;BME280;39400;49.744;7.012;2022-12-16T00:20:46;94902.72;;;-7.24;100.00
33454;BME280;39400;49.744;7.012;2022-12-16T00:23:12;94910.22;;;-7.26;100.00
33454;BME280;39400;49.744;7.012;2022-12-16T00:25:40;94905.94;;;-7.35;100.00
33454;BME280;39400;49.744;7.012;2022-12-16T00:28:06;94906.72;;;-7.35;100.00
33454;BME280;39400;49.744;7.012;2022-12-16T00:30:31;94908.78;;;-7.32;100.00
33454;BME280;39400;49.744;7.012;2022-12-16T00:32:56;94906.59;;;-7.52;100.00
33454;BME280;39400;49.744;7.012;2022-12-16T00:35:22;94897.94;;;-7.58;100.00
33454;BME280;39400;49.744;7.012;2022-12-16T00:37:47;94912.00;;;-7.66;100.00
33454;BME280;39400;49.744;7.012;2022-12-16T00:40:12;94911.59;;;-7.59;100.00
33454;BME280;39400;49.744;7.012;2022-12-16T00:42:38;94911.16;;;-7.53;100.00
33454;BME280;39400;49.744;7.012;2022-12-16T00:45:03;94917.63;;;-7.45;100.00
33454;BME280;39400;49.744;7.012;2022-12-16T00:47:29;94916.56;;;-7.67;100.00
33454;BME280;39400;49.744;7.012;2022-12-16T00:49:54;94917.88;;;-7.55;100.00
33454;BME280;39400;49.744;7.012;2022-12-16T00:52:20;94913.91;;;-7.44;100.00
33454;BME280;39400;49.744;7.012;2022-12-16T00:54:45;94910.97;;;-7.34;100.00
33454;BME280;39400;49.744;7.012;2022-12-16T00:57:10;94906.88;;;-7.31;100.00
33454;BME280;39400;49.744;7.012;2022-12-16T00:59:36;94907.38;;;-7.29;100.00
33454;BME280;39400;49.744;7.012;2022-12-16T01:02:01;94909.81;;;-7.42;100.00
33454;BME280;39400;49.744;7.012;2022-12-16T01:04:31;94912.22;;;-7.31;100.00
33454;BME280;39400;49.744;7.012;2022-12-16T01:06:56;94915.81;;;-7.36;100.00
33454;BME280;39400;49.744;7.012;2022-12-16T01:09:21;94919.72;;;-7.64;100.00
33454;BME280;39400;49.744;7.012;2022-12-16T01:11:47;94919.97;;;-7.75;100.00
33454;BME280;39400;49.744;7.012;2022-12-16T01:14:12;94927.75;;;-8.01;100.00
33454;BME280;39400;49.744;7.012;2022-12-16T01:16:37;94926.00;;;-8.05;100.00
33454;BME280;39400;49.744;7.012;2022-12-16T01:19:03;94925.44;;;-8.16;100.00
33454;BME280;39400;49.744;7.012;2022-12-16T01:21:28;94928.53;;;-8.00;100.00
33454;BME280;39400;49.744;7.012;2022-12-16T01:23:54;94942.13;;;-7.88;100.00
33454;BME280;39400;49.744;7.012;2022-12-16T01:26:20;94938.09;;;-7.63;100.00
33454;BME280;39400;49.744;7.012;2022-12-16T01:28:48;94950.91;;;-7.51;100.00
33454;BME280;39400;49.744;7.012;2022-12-16T01:31:14;94950.28;;;-7.48;100.00
33454;BME280;39400;49.744;7.012;2022-12-16T01:33:41;94950.28;;;-7.48;100.00
33454;BME280;39400;49.744;7.012;2022-12-16T01:36:07;94945.94;;;-7.44;100.00
33454;BME280;39400;49.744;7.012;2022-12-16T01:38:33;94956.25;;;-7.51;100.00
33454;BME280;39400;49.744;7.012;2022-12-16T01:40:58;94959.53;;;-7.54;100.00
33454;BME280;39400;49.744;7.012;2022-12-16T01:43:30;94954.19;;;-7.54;100.00
33454;BME280;39400;49.744;7.012;2022-12-16T01:46:04;94969.34;;;-7.63;100.00
33454;BME280;39400;49.744;7.012;2022-12-16T01:48:56;94955.50;;;-7.66;100.00
33454;BME280;39400;49.744;7.012;2022-12-16T01:51:24;94965.31;;;-7.52;100.00
33454;BME280;39400;49.744;7.012;2022-12-16T01:53:55;94960.47;;;-7.50;100.00
33454;BME280;39400;49.744;7.012;2022-12-16T01:56:23;94968.13;;;-7.57;100.00
33454;BME280;39400;49.744;7.012;2022-12-16T01:58:51;94968.84;;;-7.66;100.00
33454;BME280;39400;49.744;7.012;2022-12-16T02:01:16;94970.91;;;-7.62;100.00
33454;BME280;39400;49.744;7.012;2022-12-16T02:03:42;94975.28;;;-7.67;100.00
33454;BME280;39400;49.744;7.012;2022-12-16T02:06:08;94967.69;;;-7.73;100.00
33454;BME280;39400;49.744;7.012;2022-12-16T02:08:34;94968.72;;;-7.60;100.00
33454;BME280;39400;49.744;7.012;2022-12-16T02:11:14;94965.75;;;-7.59;100.00
33454;BME280;39400;49.744;7.012;2022-12-16T02:13:58;94969.94;;;-7.67;100.00
33454;BME280;39400;49.744;7.012;2022-12-16T02:16:53;94967.03;;;-7.79;100.00
33454;BME280;39400;49.744;7.012;2022-12-16T02:30:58;94962.44;;;-7.64;100.00
33454;BME280;39400;49.744;7.012;2022-12-16T02:33:40;94955.88;;;-7.58;100.00
33454;BME280;39400;49.744;7.012;2022-12-16T02:36:31;94957.19;;;-7.70;100.00
33454;BME280;39400;49.744;7.012;2022-12-16T02:39:12;94965.31;;;-7.75;100.00
33454;BME280;39400;49.744;7.012;2022-12-16T02:44:16;94971.59;;;-7.93;100.00
33454;BME280;39400;49.744;7.012;2022-12-16T02:46:54;94970.16;;;-7.77;100.00
33454;BME280;39400;49.744;7.012;2022-12-16T02:51:45;94980.47;;;-7.84;100.00
33454;BME280;39400;49.744;7.012;2022-12-16T02:54:12;94982.34;;;-7.84;100.00
33454;BME280;39400;49.744;7.012;2022-12-16T03:05:05;94997.63;;;-7.76;100.00
33454;BME280;39400;49.744;7.012;2022-12-16T03:07:34;94988.56;;;-7.75;100.00
33454;BME280;39400;49.744;7.012;2022-12-16T03:10:03;95004.00;;;-7.86;100.00
33454;BME280;39400;49.744;7.012;2022-12-16T03:12:29;94995.09;;;-7.81;100.00
33454;BME280;39400;49.744;7.012;2022-12-16T03:14:55;94994.91;;;-7.85;100.00
33454;BME280;39400;49.744;7.012;2022-12-16T03:17:23;95000.78;;;-7.74;100.00
33454;BME280;39400;49.744;7.012;2022-12-16T03:20:21;95004.75;;;-7.72;100.00
33454;BME280;39400;49.744;7.012;2022-12-16T03:22:50;94993.81;;;-7.84;100.00
33454;BME280;39400;49.744;7.012;2022-12-16T03:25:18;94991.69;;;-8.09;100.00
33454;BME280;39400;49.744;7.012;2022-12-16T03:30:19;94997.88;;;-8.00;100.00
33454;BME280;39400;49.744;7.012;2022-12-16T03:35:21;95001.09;;;-8.26;100.00
33454;BME280;39400;49.744;7.012;2022-12-16T03:37:49;94993.16;;;-8.03;100.00
33454;BME280;39400;49.744;7.012;2022-12-16T03:40:16;95000.06;;;-8.02;100.00
33454;BME280;39400;49.744;7.012;2022-12-16T03:42:42;95006.00;;;-8.05;100.00
33454;BME280;39400;49.744;7.012;2022-12-16T03:45:13;95008.06;;;-8.02;100.00
33454;BME280;39400;49.744;7.012;2022-12-16T03:47:40;95007.56;;;-8.04;100.00
33454;BME280;39400;49.744;7.012;2022-12-16T03:50:05;95004.44;;;-8.06;100.00
33454;BME280;39400;49.744;7.012;2022-12-16T03:52:31;95009.94;;;-8.03;100.00
33454;BME280;39400;49.744;7.012;2022-12-16T03:54:57;95016.53;;;-8.00;100.00
33454;BME280;39400;49.744;7.012;2022-12-16T03:57:22;95018.31;;;-7.82;100.00
33454;BME280;39400;49.744;7.012;2022-12-16T03:59:47;95016.84;;;-7.88;100.00
33454;BME280;39400;49.744;7.012;2022-12-16T04:02:13;95017.72;;;-7.79;100.00
33454;BME280;39400;49.744;7.012;2022-12-16T04:04:38;95025.13;;;-7.76;100.00
33454;BME280;39400;49.744;7.012;2022-12-16T04:07:03;95024.41;;;-7.68;100.00
33454;BME280;39400;49.744;7.012;2022-12-16T04:09:29;95023.69;;;-7.59;100.00
33454;BME280;39400;49.744;7.012;2022-12-16T04:11:54;95013.78;;;-7.59;100.00
33454;BME280;39400;49.744;7.012;2022-12-16T04:14:19;95014.16;;;-7.52;100.00
33454;BME280;39400;49.744;7.012;2022-12-16T04:16:45;95016.53;;;-7.50;100.00
33454;BME280;39400;49.744;7.012;2022-12-16T04:19:18;95016.41;;;-7.45;100.00
33454;BME280;39400;49.744;7.012;2022-12-16T04:21:45;95020.88;;;-7.40;100.00
33454;BME280;39400;49.744;7.012;2022-12-16T04:24:15;95022.63;;;-7.36;100.00
33454;BME280;39400;49.744;7.012;2022-12-16T04:26:41;95028.13;;;-7.32;100.00
33454;BME280;39400;49.744;7.012;2022-12-16T04:29:06;95028.03;;;-7.27;100.00
33454;BME280;39400;49.744;7.012;2022-12-16T04:31:31;95034.38;;;-7.14;100.00
33454;BME280;39400;49.744;7.012;2022-12-16T04:33:57;95030.88;;;-7.24;100.00
33454;BME280;39400;49.744;7.012;2022-12-16T04:36:22;95037.19;;;-7.20;100.00
33454;BME280;39400;49.744;7.012;2022-12-16T04:38:48;95030.25;;;-7.21;100.00
33454;BME280;39400;49.744;7.012;2022-12-16T04:41:13;95031.25;;;-7.16;100.00
33454;BME280;39400;49.744;7.012;2022-12-16T04:43:39;95040.53;;;-7.14;100.00
33454;BME280;39400;49.744;7.012;2022-12-16T04:46:04;95048.25;;;-7.12;100.00
33454;BME280;39400;49.744;7.012;2022-12-16T04:48:29;95048.59;;;-7.05;100.00
33454;BME280;39400;49.744;7.012;2022-12-16T04:50:55;95046.91;;;-7.01;100.00
33454;BME280;39400;49.744;7.012;2022-12-16T04:53:20;95054.13;;;-7.02;100.00
33454;BME280;39400;49.744;7.012;2022-12-16T04:55:45;95056.91;;;-7.07;100.00
33454;BME280;39400;49.744;7.012;2022-12-16T04:58:11;95056.66;;;-6.97;100.00
33454;BME280;39400;49.744;7.012;2022-12-16T05:00:37;95060.63;;;-6.94;100.00
33454;BME280;39400;49.744;7.012;2022-12-16T05:03:02;95066.16;;;-6.90;100.00
33454;BME280;39400;49.744;7.012;2022-12-16T05:05:28;95065.03;;;-6.89;100.00
33454;BME280;39400;49.744;7.012;2022-12-16T05:07:53;95073.25;;;-6.86;100.00
33454;BME280;39400;49.744;7.012;2022-12-16T05:10:18;95077.97;;;-6.83;100.00
33454;BME280;39400;49.744;7.012;2022-12-16T05:12:43;95074.34;;;-6.87;100.00
33454;BME280;39400;49.744;7.012;2022-12-16T05:15:09;95075.81;;;-6.81;100.00
33454;BME280;39400;49.744;7.012;2022-12-16T05:17:34;95074.59;;;-6.75;100.00
33454;BME280;39400;49.744;7.012;2022-12-16T05:19:59;95080.34;;;-6.81;100.00
33454;BME280;39400;49.744;7.012;2022-12-16T05:22:25;95087.09;;;-6.84;100.00
33454;BME280;39400;49.744;7.012;2022-12-16T05:24:50;95086.78;;;-6.82;100.00
33454;BME280;39400;49.744;7.012;2022-12-16T05:27:16;95086.50;;;-6.81;100.00
33454;BME280;39400;49.744;7.012;2022-12-16T05:29:41;95092.97;;;-6.73;100.00
33454;BME280;39400;49.744;7.012;2022-12-16T05:32:07;95095.00;;;-6.79;100.00
33454;BME280;39400;49.744;7.012;2022-12-16T05:34:32;95099.59;;;-6.71;100.00
33454;BME280;39400;49.744;7.012;2022-12-16T05:36:57;95105.41;;;-6.68;100.00
33454;BME280;39400;49.744;7.012;2022-12-16T05:39:23;95107.63;;;-6.71;100.00
33454;BME280;39400;49.744;7.012;2022-12-16T05:41:48;95108.84;;;-6.77;100.00
33454;BME280;39400;49.744;7.012;2022-12-16T05:44:14;95115.22;;;-6.64;100.00
33454;BME280;39400;49.744;7.012;2022-12-16T05:46:39;95125.78;;;-6.59;100.00
33454;BME280;39400;49.744;7.012;2022-12-16T05:49:04;95128.16;;;-6.57;100.00
33454;BME280;39400;49.744;7.012;2022-12-16T05:51:30;95131.72;;;-6.62;100.00
33454;BME280;39400;49.744;7.012;2022-12-16T05:53:55;95137.25;;;-6.58;100.00
33454;BME280;39400;49.744;7.012;2022-12-16T05:56:20;95139.09;;;-6.67;100.00
33454;BME280;39400;49.744;7.012;2022-12-16T05:58:46;95135.81;;;-6.64;100.00
33454;BME280;39400;49.744;7.012;2022-12-16T06:01:11;95142.00;;;-6.55;100.00
33454;BME280;39400;49.744;7.012;2022-12-16T06:03:37;95142.25;;;-6.65;100.00
33454;BME280;39400;49.744;7.012;2022-12-16T06:06:02;95139.69;;;-6.71;100.00
33454;BME280;39400;49.744;7.012;2022-12-16T06:08:27;95144.06;;;-6.75;100.00
33454;BME280;39400;49.744;7.012;2022-12-16T06:10:53;95142.56;;;-6.67;100.00
33454;BME280;39400;49.744;7.012;2022-12-16T06:13:18;95146.19;;;-6.63;100.00
33454;BME280;39400;49.744;7.012;2022-12-16T06:15:44;95146.38;;;-6.59;100.00
33454;BME280;39400;49.744;7.012;2022-12-16T06:18:10;95157.66;;;-6.62;100.00
33454;BME280;39400;49.744;7.012;2022-12-16T06:20:35;95155.97;;;-6.58;100.00
33454;BME280;39400;49.744;7.012;2022-12-16T06:23:01;95162.41;;;-6.59;100.00
33454;BME280;39400;49.744;7.012;2022-12-16T06:25:26;95168.72;;;-6.55;100.00
33454;BME280;39400;49.744;7.012;2022-12-16T06:27:52;95171.53;;;-6.60;100.00
33454;BME280;39400;49.744;7.012;2022-12-16T06:30:17;95179.66;;;-6.65;100.00
33454;BME280;39400;49.744;7.012;2022-12-16T06:32:43;95182.59;;;-6.53;100.00
33454;BME280;39400;49.744;7.012;2022-12-16T06:35:08;95194.06;;;-6.53;100.00
33454;BME280;39400;49.744;7.012;2022-12-16T06:37:33;95179.78;;;-6.48;100.00
33454;BME280;39400;49.744;7.012;2022-12-16T06:39:59;95191.47;;;-6.44;100.00
33454;BME280;39400;49.744;7.012;2022-12-16T06:42:24;95204.03;;;-6.44;100.00
33454;BME280;39400;49.744;7.012;2022-12-16T06:44:49;95205.06;;;-6.32;100.00
33454;BME280;39400;49.744;7.012;2022-12-16T06:47:14;95198.16;;;-6.33;100.00
33454;BME280;39400;49.744;7.012;2022-12-16T06:49:40;95209.88;;;-6.42;100.00
33454;BME280;39400;49.744;7.012;2022-12-16T06:52:05;95214.69;;;-6.53;100.00
33454;BME280;39400;49.744;7.012;2022-12-16T06:54:30;95214.88;;;-6.50;100.00
33454;BME280;39400;49.744;7.012;2022-12-16T06:56:56;95219.28;;;-6.45;100.00
33454;BME280;39400;49.744;7.012;2022-12-16T06:59:21;95227.72;;;-6.52;100.00
33454;BME280;39400;49.744;7.012;2022-12-16T07:01:46;95225.84;;;-6.51;100.00
33454;BME280;39400;49.744;7.012;2022-12-16T07:04:12;95238.44;;;-6.52;100.00
33454;BME280;39400;49.744;7.012;2022-12-16T07:06:40;95235.06;;;-6.43;100.00
33454;BME280;39400;49.744;7.012;2022-12-16T07:09:06;95241.47;;;-6.44;100.00
33454;BME280;39400;49.744;7.012;2022-12-16T07:11:32;95241.19;;;-6.43;100.00
33454;BME280;39400;49.744;7.012;2022-12-16T07:13:58;95244.56;;;-6.51;100.00
33454;BME280;39400;49.744;7.012;2022-12-16T07:16:23;95250.19;;;-6.39;100.00
33454;BME280;39400;49.744;7.012;2022-12-16T07:18:48;95251.28;;;-6.40;100.00
33454;BME280;39400;49.744;7.012;2022-12-16T07:21:14;95247.38;;;-6.56;100.00
33454;BME280;39400;49.744;7.012;2022-12-16T07:23:39;95255.25;;;-6.51;100.00
33454;BME280;39400;49.744;7.012;2022-12-16T07:26:04;95256.72;;;-6.45;100.00
33454;BME280;39400;49.744;7.012;2022-12-16T07:28:30;95259.31;;;-6.40;100.00
33454;BME280;39400;49.744;7.012;2022-12-16T07:30:55;95263.78;;;-6.49;100.00
33454;BME280;39400;49.744;7.012;2022-12-16T07:33:20;95261.97;;;-6.40;100.00
33454;BME280;39400;49.744;7.012;2022-12-16T07:35:46;95268.78;;;-6.34;100.00
33454;BME280;39400;49.744;7.012;2022-12-16T07:38:11;95267.28;;;-6.26;100.00
33454;BME280;39400;49.744;7.012;2022-12-16T07:40:36;95275.34;;;-6.17;100.00
33454;BME280;39400;49.744;7.012;2022-12-16T07:43:02;95283.88;;;-6.15;100.00
33454;BME280;39400;49.744;7.012;2022-12-16T07:45:27;95290.00;;;-6.15;100.00
33454;BME280;39400;49.744;7.012;2022-12-16T07:47:53;95283.97;;;-6.20;100.00
33454;BME280;39400;49.744;7.012;2022-12-16T07:50:18;95292.00;;;-6.20;100.00
33454;BME280;39400;49.744;7.012;2022-12-16T07:52:43;95301.50;;;-6.14;100.00
33454;BME280;39400;49.744;7.012;2022-12-16T07:55:09;95300.72;;;-6.15;100.00
33454;BME280;39400;49.744;7.012;2022-12-16T07:57:34;95299.78;;;-6.10;100.00
33454;BME280;39400;49.744;7.012;2022-12-16T07:59:59;95302.88;;;-6.17;100.00
33454;BME280;39400;49.744;7.012;2022-12-16T08:02:25;95307.81;;;-6.10;100.00
33454;BME280;39400;49.744;7.012;2022-12-16T08:04:50;95317.56;;;-6.14;100.00
33454;BME280;39400;49.744;7.012;2022-12-16T08:07:15;95320.22;;;-5.92;100.00
33454;BME280;39400;49.744;7.012;2022-12-16T08:09:40;95323.88;;;-5.88;100.00
33454;BME280;39400;49.744;7.012;2022-12-16T08:12:06;95324.34;;;-5.86;100.00
33454;BME280;39400;49.744;7.012;2022-12-16T08:14:31;95340.66;;;-5.74;100.00
33454;BME280;39400;49.744;7.012;2022-12-16T08:16:56;95324.81;;;-5.61;100.00
33454;BME280;39400;49.744;7.012;2022-12-16T08:19:22;95332.44;;;-5.77;100.00
33454;BME280;39400;49.744;7.012;2022-12-16T08:21:47;95331.78;;;-5.60;100.00
33454;BME280;39400;49.744;7.012;2022-12-16T08:24:13;95328.25;;;-5.69;100.00
33454;BME280;39400;49.744;7.012;2022-12-16T08:26:38;95335.53;;;-5.61;100.00
33454;BME280;39400;49.744;7.012;2022-12-16T08:29:03;95340.78;;;-5.56;100.00
33454;BME280;39400;49.744;7.012;2022-12-16T08:31:28;95340.63;;;-5.51;100.00
33454;BME280;39400;49.744;7.012;2022-12-16T08:33:54;95344.03;;;-5.37;100.00
33454;BME280;39400;49.744;7.012;2022-12-16T08:36:19;95343.66;;;-5.44;100.00
33454;BME280;39400;49.744;7.012;2022-12-16T08:38:44;95344.69;;;-5.31;100.00
33454;BME280;39400;49.744;7.012;2022-12-16T08:41:10;95359.84;;;-5.27;100.00
33454;BME280;39400;49.744;7.012;2022-12-16T08:43:35;95353.56;;;-5.22;100.00
33454;BME280;39400;49.744;7.012;2022-12-16T08:46:00;95365.06;;;-5.21;100.00
33454;BME280;39400;49.744;7.012;2022-12-16T08:48:26;95361.03;;;-5.10;100.00
33454;BME280;39400;49.744;7.012;2022-12-16T08:50:52;95368.94;;;-5.05;100.00
33454;BME280;39400;49.744;7.012;2022-12-16T08:53:17;95374.03;;;-4.95;100.00
33454;BME280;39400;49.744;7.012;2022-12-16T08:55:43;95367.34;;;-5.06;100.00
33454;BME280;39400;49.744;7.012;2022-12-16T08:58:08;95370.88;;;-4.97;100.00
33454;BME280;39400;49.744;7.012;2022-12-16T09:00:33;95382.56;;;-4.93;100.00
33454;BME280;39400;49.744;7.012;2022-12-16T09:02:59;95385.13;;;-4.88;100.00
33454;BME280;39400;49.744;7.012;2022-12-16T09:05:25;95376.75;;;-4.86;100.00
33454;BME280;39400;49.744;7.012;2022-12-16T09:07:50;95388.59;;;-4.79;100.00
33454;BME280;39400;49.744;7.012;2022-12-16T09:10:15;95382.63;;;-4.75;100.00
33454;BME280;39400;49.744;7.012;2022-12-16T09:12:41;95385.47;;;-4.81;100.00
33454;BME280;39400;49.744;7.012;2022-12-16T09:15:06;95386.59;;;-4.73;100.00
33454;BME280;39400;49.744;7.012;2022-12-16T09:17:32;95387.88;;;-4.62;100.00
33454;BME280;39400;49.744;7.012;2022-12-16T09:19:57;95388.03;;;-4.58;100.00
33454;BME280;39400;49.744;7.012;2022-12-16T09:22:22;95387.13;;;-4.53;100.00
33454;BME280;39400;49.744;7.012;2022-12-16T09:24:48;95383.69;;;-4.45;100.00
33454;BME280;39400;49.744;7.012;2022-12-16T09:27:13;95389.50;;;-4.52;100.00
33454;BME280;39400;49.744;7.012;2022-12-16T09:29:38;95403.25;;;-4.45;100.00
33454;BME280;39400;49.744;7.012;2022-12-16T09:32:04;95398.84;;;-4.41;100.00
33454;BME280;39400;49.744;7.012;2022-12-16T09:34:29;95400.59;;;-4.27;100.00
33454;BME280;39400;49.744;7.012;2022-12-16T09:36:54;95397.13;;;-4.28;100.00
33454;BME280;39400;49.744;7.012;2022-12-16T09:39:20;95401.09;;;-4.25;100.00
33454;BME280;39400;49.744;7.012;2022-12-16T09:42:02;95403.28;;;-4.27;100.00
33454;BME280;39400;49.744;7.012;2022-12-16T09:47:10;95399.50;;;-4.26;100.00
33454;BME280;39400;49.744;7.012;2022-12-16T09:49:44;95407.59;;;-4.18;100.00
33454;BME280;39400;49.744;7.012;2022-12-16T09:52:15;95407.13;;;-4.11;100.00
33454;BME280;39400;49.744;7.012;2022-12-16T09:54:44;95409.03;;;-4.03;100.00
33454;BME280;39400;49.744;7.012;2022-12-16T09:57:10;95407.13;;;-4.02;100.00
33454;BME280;39400;49.744;7.012;2022-12-16T09:59:40;95406.81;;;-4.01;100.00
33454;BME280;39400;49.744;7.012;2022-12-16T10:02:11;95407.59;;;-3.92;100.00
33454;BME280;39400;49.744;7.012;2022-12-16T10:04:36;95410.44;;;-3.88;100.00
33454;BME280;39400;49.744;7.012;2022-12-16T10:07:03;95412.53;;;-3.76;100.00
33454;BME280;39400;49.744;7.012;2022-12-16T10:12:22;95410.47;;;-3.62;100.00
33454;BME280;39400;49.744;7.012;2022-12-16T10:15:48;95421.56;;;-3.64;100.00
33454;BME280;39400;49.744;7.012;2022-12-16T10:17:47;95418.38;;;-3.48;100.00
33454;BME280;39400;49.744;7.012;2022-12-16T10:20:30;95420.44;;;-3.54;100.00
33454;BME280;39400;49.744;7.012;2022-12-16T10:25:44;95422.66;;;-3.39;100.00
33454;BME280;39400;49.744;7.012;2022-12-16T10:28:17;95422.47;;;-3.25;100.00
33454;BME280;39400;49.744;7.012;2022-12-16T10:30:42;95417.09;;;-3.16;100.00
33454;BME280;39400;49.744;7.012;2022-12-16T10:33:10;95431.00;;;-3.14;100.00
33454;BME280;39400;49.744;7.012;2022-12-16T10:35:45;95417.56;;;-3.14;100.00
33454;BME280;39400;49.744;7.012;2022-12-16T10:38:21;95422.47;;;-3.16;100.00
33454;BME280;39400;49.744;7.012;2022-12-16T10:40:49;95422.75;;;-3.00;100.00
33454;BME280;39400;49.744;7.012;2022-12-16T10:43:21;95428.00;;;-3.04;100.00
33454;BME280;39400;49.744;7.012;2022-12-16T10:45:53;95422.91;;;-2.97;100.00
33454;BME280;39400;49.744;7.012;2022-12-16T10:48:27;95423.53;;;-3.00;100.00
33454;BME280;39400;49.744;7.012;2022-12-16T10:50:54;95426.97;;;-2.82;100.00
33454;BME280;39400;49.744;7.012;2022-12-16T10:53:26;95440.22;;;-2.68;100.00
33454;BME280;39400;49.744;7.012;2022-12-16T10:59:03;95433.72;;;-2.67;100.00
33454;BME280;39400;49.744;7.012;2022-12-16T11:01:29;95437.84;;;-2.61;100.00
33454;BME280;39400;49.744;7.012;2022-12-16T11:03:55;95439.81;;;-2.41;100.00
33454;BME280;39400;49.744;7.012;2022-12-16T11:06:37;95436.97;;;-2.35;100.00
33454;BME280;39400;49.744;7.012;2022-12-16T11:09:26;95437.84;;;-2.23;100.00
33454;BME280;39400;49.744;7.012;2022-12-16T11:11:51;95437.53;;;-2.21;100.00
33454;BME280;39400;49.744;7.012;2022-12-16T11:19:39;95440.66;;;-2.19;100.00
33454;BME280;39400;49.744;7.012;2022-12-16T11:22:16;95441.44;;;-2.10;100.00
33454;BME280;39400;49.744;7.012;2022-12-16T11:24:42;95440.59;;;-2.02;100.00
33454;BME280;39400;49.744;7.012;2022-12-16T11:29:56;95428.78;;;-1.88;100.00
33454;BME280;39400;49.744;7.012;2022-12-16T11:32:24;95439.84;;;-1.81;100.00
33454;BME280;39400;49.744;7.012;2022-12-16T11:34:54;95438.25;;;-1.82;100.00
33454;BME280;39400;49.744;7.012;2022-12-16T11:37:20;95433.28;;;-1.72;100.00
33454;BME280;39400;49.744;7.012;2022-12-16T11:39:46;95444.72;;;-1.75;100.00
33454;BME280;39400;49.744;7.012;2022-12-16T11:42:20;95444.97;;;-1.68;100.00
33454;BME280;39400;49.744;7.012;2022-12-16T11:44:50;95446.63;;;-1.54;100.00
33454;BME280;39400;49.744;7.012;2022-12-16T11:47:25;95444.06;;;-1.51;100.00
33454;BME280;39400;49.744;7.012;2022-12-16T11:49:57;95448.47;;;-1.67;100.00
33454;BME280;39400;49.744;7.012;2022-12-16T11:52:22;95441.41;;;-1.59;100.00
33454;BME280;39400;49.744;7.012;2022-12-16T11:55:03;95446.22;;;-1.65;100.00
33454;BME280;39400;49.744;7.012;2022-12-16T11:57:58;95455.88;;;-1.64;100.00
33454;BME280;39400;49.744;7.012;2022-12-16T12:00:27;95459.06;;;-1.62;100.00
33454;BME280;39400;49.744;7.012;2022-12-16T12:03:05;95450.63;;;-1.60;100.00
33454;BME280;39400;49.744;7.012;2022-12-16T12:05:38;95460.63;;;-1.40;100.00
33454;BME280;39400;49.744;7.012;2022-12-16T12:08:10;95454.47;;;1.41;100.00
33454;BME280;39400;49.744;7.012;2022-12-16T12:13:39;95460.00;;;4.71;84.71
33454;BME280;39400;49.744;7.012;2022-12-16T12:16:14;95464.50;;;5.54;78.70
33454;BME280;39400;49.744;7.012;2022-12-16T12:19:04;95463.91;;;6.05;71.09
33454;BME280;39400;49.744;7.012;2022-12-16T12:30:07;95475.78;;;7.55;61.61
33454;BME280;39400;49.744;7.012;2022-12-16T12:32:48;95468.84;;;7.86;59.94
33454;BME280;39400;49.744;7.012;2022-12-16T12:38:19;95470.38;;;7.77;57.95
33454;BME280;39400;49.744;7.012;2022-12-16T12:44:32;95478.66;;;8.13;55.78
33454;BME280;39400;49.744;7.012;2022-12-16T12:46:58;95486.13;;;8.44;54.97
33454;BME280;39400;49.744;7.012;2022-12-16T12:50:19;95488.03;;;8.12;54.96
33454;BME280;39400;49.744;7.012;2022-12-16T12:52:28;95487.28;;;8.15;53.28
33454;BME280;39400;49.744;7.012;2022-12-16T12:55:03;95487.28;;;8.29;53.16
33454;BME280;39400;49.744;7.012;2022-12-16T12:57:35;95498.59;;;8.09;53.27
33454;BME280;39400;49.744;7.012;2022-12-16T13:00:05;95493.56;;;8.76;52.16
33454;BME280;39400;49.744;7.012;2022-12-16T13:05:12;95495.16;;;8.59;51.36
33454;BME280;39400;49.744;7.012;2022-12-16T13:07:39;95490.72;;;9.33;51.45
33454;BME280;39400;49.744;7.012;2022-12-16T13:15:39;95501.56;;;7.58;52.70
33454;BME280;39400;49.744;7.012;2022-12-16T13:22:58;95505.59;;;10.23;47.92
33454;BME280;39400;49.744;7.012;2022-12-16T13:25:49;95524.91;;;8.75;48.37
33454;BME280;39400;49.744;7.012;2022-12-16T13:28:34;95519.00;;;8.66;50.14
33454;BME280;39400;49.744;7.012;2022-12-16T13:31:03;95519.75;;;8.34;50.31
33454;BME280;39400;49.744;7.012;2022-12-16T13:33:30;95516.53;;;6.50;53.62
33454;BME280;39400;49.744;7.012;2022-12-16T13:35:57;95523.88;;;3.63;61.21
33454;BME280;39400;49.744;7.012;2022-12-16T13:38:24;95530.88;;;2.07;66.79
33454;BME280;39400;49.744;7.012;2022-12-16T13:41:04;95531.53;;;1.28;70.77
33454;BME280;39400;49.744;7.012;2022-12-16T13:43:52;95544.03;;;0.80;74.64
33454;BME280;39400;49.744;7.012;2022-12-16T13:46:18;95539.66;;;1.28;78.04
33454;BME280;39400;49.744;7.012;2022-12-16T13:48:44;95537.69;;;1.85;75.95
33454;BME280;39400;49.744;7.012;2022-12-16T13:54:01;95541.56;;;2.31;72.28
33454;BME280;39400;49.744;7.012;2022-12-16T13:56:47;95538.75;;;1.52;74.83
33454;BME280;39400;49.744;7.012;2022-12-16T13:59:20;95553.50;;;0.74;77.58
33454;BME280;39400;49.744;7.012;2022-12-16T14:04:18;95554.88;;;0.19;81.35
33454;BME280;39400;49.744;7.012;2022-12-16T14:06:48;95556.44;;;0.44;81.73
33454;BME280;39400;49.744;7.012;2022-12-16T14:09:35;95553.97;;;0.64;80.40
33454;BME280;39400;49.744;7.012;2022-12-16T14:12:04;95559.25;;;-0.34;84.63
33454;BME280;39400;49.744;7.012;2022-12-16T14:14:50;95566.34;;;0.04;86.07
33454;BME280;39400;49.744;7.012;2022-12-16T14:17:28;95566.75;;;1.04;82.22
33454;BME280;39400;49.744;7.012;2022-12-16T14:20:02;95569.66;;;2.23;75.26
33454;BME280;39400;49.744;7.012;2022-12-16T14:22:57;95575.38;;;0.32;80.72
33454;BME280;39400;49.744;7.012;2022-12-16T14:25:25;95583.94;;;0.22;83.50